Time;durP1;ratioP1;P1;durP2;ratioP2;P2;SDS_P1;SDS_P2;PMS_P1;PMS_P2;Temp;Humidity;BMP_temperature;BMP_pressure;BME280_temperature;BME280_humidity;BME280_pressure;Samples;Min_cycle;Max_cycle;Signal;HPM_P1;HPM_P2
2021/09/28 00:02:22;;;;;;;3.77;3.10;;;;;;;11.01;64.70;100185.07;1746712;82;20973;-36
2021/09/28 00:04:49;;;;;;;6.75;3.80;;;;;;;10.96;64.85;100182.59;1746672;82;21013;-36
2021/09/28 00:07:16;;;;;;;5.65;3.95;;;;;;;10.90;64.94;100182.82;1746732;82;21024;-36
2021/09/28 00:09:43;;;;;;;4.47;4.08;;;;;;;10.84;64.91;100180.11;1746401;82;20997;-36
2021/09/28 00:12:12;;;;;;;6.37;4.28;;;;;;;10.81;65.03;100180.80;1746579;82;20969;-36
2021/09/28 00:14:39;;;;;;;6.67;4.80;;;;;;;10.83;65.17;100182.63;1746749;82;21033;-36
2021/09/28 00:17:05;;;;;;;6.45;4.87;;;;;;;10.87;65.27;100186.23;1746638;82;21053;-36
2021/09/28 00:19:32;;;;;;;7.85;4.92;;;;;;;10.87;65.40;100188.94;1783990;80;21099;-36
2021/09/28 00:22:00;;;;;;;6.75;4.45;;;;;;;10.85;65.74;100191.75;1785184;80;21544;-36
2021/09/28 00:24:28;;;;;;;5.10;4.30;;;;;;;10.82;65.99;100186.45;1785586;80;20965;-36
2021/09/28 00:26:54;;;;;;;7.35;4.42;;;;;;;10.82;66.08;100186.45;1759637;81;21498;-36
2021/09/28 00:30:41;;;;;;;6.55;5.00;;;;;;;10.86;66.11;100184.64;1795910;78;22500;-35
2021/09/28 00:33:08;;;;;;;4.87;4.08;;;;;;;10.75;66.24;100188.14;1752885;81;21035;-34
2021/09/28 00:35:34;;;;;;;5.75;3.87;;;;;;;10.77;66.37;100186.69;1753130;81;21107;-34
2021/09/28 00:38:02;;;;;;;4.30;3.72;;;;;;;10.77;66.65;100188.05;1752960;81;20933;-34
2021/09/28 00:40:30;;;;;;;4.35;3.80;;;;;;;10.79;66.77;100184.44;1752749;81;21076;-34
2021/09/28 00:42:58;;;;;;;4.58;3.98;;;;;;;10.79;66.89;100182.29;1753094;81;20938;-34
2021/09/28 00:45:25;;;;;;;4.60;3.90;;;;;;;10.79;66.86;100187.16;1752997;81;20996;-34
2021/09/28 00:47:52;;;;;;;4.58;3.83;;;;;;;10.79;67.04;100180.38;1769567;80;21121;-34
2021/09/28 00:50:19;;;;;;;4.70;3.80;;;;;;;10.79;67.06;100181.73;1777696;80;21007;-34
2021/09/28 00:52:46;;;;;;;4.50;3.50;;;;;;;10.80;66.86;100180.57;1777477;80;21586;-34
2021/09/28 00:55:16;;;;;;;5.30;3.33;;;;;;;10.80;66.70;100174.35;1777821;80;21024;-34
2021/09/28 00:57:44;;;;;;;5.50;3.80;;;;;;;10.80;66.48;100175.71;1777609;80;21492;-34
2021/09/28 01:00:12;;;;;;;6.53;3.45;;;;;;;10.83;66.15;100176.41;1780337;80;21102;-35
2021/09/28 01:02:40;;;;;;;4.58;3.87;;;;;;;10.83;65.84;100179.12;1726601;82;21011;-34
2021/09/28 01:05:08;;;;;;;8.30;3.87;;;;;;;10.79;65.48;100177.66;1709043;84;20937;-34
2021/09/28 01:07:36;;;;;;;8.03;3.87;;;;;;;10.73;65.26;100180.37;1708806;84;21017;-35
2021/09/28 01:10:04;;;;;;;6.53;3.72;;;;;;;10.65;65.27;100177.78;1708819;84;21558;-34
2021/09/28 01:12:31;;;;;;;6.50;4.08;;;;;;;10.58;65.26;100178.89;1708879;81;21825;-34
2021/09/28 01:14:58;;;;;;;5.40;4.45;;;;;;;10.23;65.18;100131.11;1724758;83;21530;-34
2021/09/28 01:17:24;;;;;;;7.62;4.17;;;;;;;10.44;65.18;100183.30;1725123;83;21039;-34
2021/09/28 01:19:52;;;;;;;5.95;4.08;;;;;;;10.35;65.33;100189.40;1743091;82;20977;-34
2021/09/28 01:22:20;;;;;;;4.87;4.22;;;;;;;10.28;65.53;100179.66;1716773;83;21026;-34
2021/09/28 01:24:48;;;;;;;4.25;3.52;;;;;;;10.26;65.67;100177.88;1716500;83;21146;-34
2021/09/28 01:27:15;;;;;;;4.60;3.92;;;;;;;10.27;65.69;100178.08;1716877;83;21024;-34
2021/09/28 01:29:43;;;;;;;4.85;4.00;;;;;;;10.29;65.78;100182.61;1712117;82;20981;-35
2021/09/28 01:32:11;;;;;;;4.95;4.42;;;;;;;10.26;65.96;100183.30;1756481;80;20964;-34
2021/09/28 01:34:37;;;;;;;6.05;4.28;;;;;;;10.23;65.98;100180.67;1755993;80;20974;-34
2021/09/28 01:37:04;;;;;;;6.80;4.40;;;;;;;10.21;65.85;100183.52;1756223;81;21260;-34
2021/09/28 01:39:32;;;;;;;5.35;4.58;;;;;;;10.17;65.91;100179.87;1755905;81;20906;-34
2021/09/28 01:41:59;;;;;;;7.10;5.00;;;;;;;10.12;66.08;100174.08;1755722;80;21004;-34
2021/09/28 01:44:27;;;;;;;5.95;4.20;;;;;;;10.07;66.10;100176.23;1780614;80;21057;-34
2021/09/28 01:46:54;;;;;;;4.17;3.77;;;;;;;10.04;66.16;100175.77;1762534;80;21043;-34
2021/09/28 01:49:21;;;;;;;4.58;4.03;;;;;;;10.07;66.11;100175.64;1780504;80;21854;-34
2021/09/28 01:51:48;;;;;;;6.12;3.98;;;;;;;10.11;65.91;100176.58;1780372;80;20976;-34
2021/09/28 01:54:16;;;;;;;8.63;4.58;;;;;;;10.09;65.82;100175.31;1780446;80;20937;-34
2021/09/28 01:56:43;;;;;;;6.78;4.10;;;;;;;10.05;65.94;100175.20;1780431;80;21079;-34
2021/09/28 01:59:11;;;;;;;5.53;4.25;;;;;;;10.04;66.09;100183.89;1780704;80;20964;-34
2021/09/28 02:01:38;;;;;;;5.15;4.10;;;;;;;10.01;66.19;100179.72;1780634;80;21180;-34
2021/09/28 02:04:04;;;;;;;5.05;4.42;;;;;;;9.96;66.32;100179.37;1781256;80;21100;-34
2021/09/28 02:06:38;;;;;;;6.35;4.60;;;;;;;9.96;66.97;100180.72;1786544;79;21558;-34
2021/09/28 02:09:06;;;;;;;4.92;4.30;;;;;;;9.98;67.80;100176.30;1786665;79;21036;-34
2021/09/28 02:11:33;;;;;;;5.28;4.37;;;;;;;10.04;68.46;100182.53;1780167;79;21091;-34
2021/09/28 02:14:01;;;;;;;6.12;4.55;;;;;;;10.11;69.21;100171.72;1755599;80;22341;-34
2021/09/28 02:16:27;;;;;;;9.15;4.53;;;;;;;10.14;69.70;100175.10;1755507;81;20976;-34
2021/09/28 02:18:54;;;;;;;5.00;4.37;;;;;;;10.17;69.84;100181.22;1755352;81;21034;-34
2021/09/28 02:21:21;;;;;;;4.87;4.05;;;;;;;10.21;69.92;100180.80;1755616;80;21092;-34
2021/09/28 02:23:49;;;;;;;4.58;3.83;;;;;;;10.26;69.96;100181.94;1755539;80;21040;-34
2021/09/28 02:26:16;;;;;;;8.60;4.03;;;;;;;10.34;69.99;100183.75;1755964;80;21144;-34
2021/09/28 02:28:42;;;;;;;5.25;4.05;;;;;;;10.41;69.88;100177.98;1755423;81;21012;-34
2021/09/28 02:31:11;;;;;;;8.18;4.15;;;;;;;10.43;69.92;100184.42;1755602;80;20964;-34
2021/09/28 02:33:37;;;;;;;4.87;4.30;;;;;;;10.43;69.93;100182.51;1755299;81;20985;-34
2021/09/28 02:36:04;;;;;;;7.08;4.05;;;;;;;10.41;69.88;100184.75;1755619;80;20957;-34
2021/09/28 02:38:31;;;;;;;4.22;3.70;;;;;;;10.41;69.98;100188.03;1755706;80;21522;-35
2021/09/28 02:40:57;;;;;;;5.25;3.90;;;;;;;10.43;70.03;100192.56;1755405;81;20886;-34
2021/09/28 02:43:24;;;;;;;6.10;4.10;;;;;;;10.48;70.04;100197.76;1755968;80;21016;-34
2021/09/28 02:45:50;;;;;;;8.20;3.92;;;;;;;10.47;70.06;100193.46;1755331;80;21439;-34
2021/09/28 02:48:17;;;;;;;11.73;4.03;;;;;;;10.45;70.15;100195.73;1776981;80;21036;-34
2021/09/28 02:50:43;;;;;;;7.05;3.70;;;;;;;10.46;70.16;100202.72;1780563;80;21140;-34
2021/09/28 02:53:11;;;;;;;4.35;3.95;;;;;;;10.50;70.13;100206.36;1780451;80;21036;-34
2021/09/28 02:55:38;;;;;;;9.38;4.28;;;;;;;10.56;70.19;100198.20;1780374;80;20991;-34
2021/09/28 02:58:04;;;;;;;13.20;4.33;;;;;;;10.64;70.13;100206.02;1780703;80;21052;-34
2021/09/28 03:00:33;;;;;;;11.78;4.60;;;;;;;10.65;70.10;100202.95;1780487;80;21633;-34
2021/09/28 03:02:59;;;;;;;6.03;4.70;;;;;;;10.66;70.09;100198.32;1780619;80;21064;-34
2021/09/28 03:05:26;;;;;;;8.88;4.25;;;;;;;10.65;70.12;100207.02;1767439;80;20943;-34
2021/09/28 03:07:52;;;;;;;8.28;3.87;;;;;;;10.68;70.11;100206.36;1755522;81;21090;-34
2021/09/28 03:10:19;;;;;;;7.62;3.92;;;;;;;10.78;70.01;100210.53;1755444;81;20995;-34
2021/09/28 03:12:47;;;;;;;8.23;4.00;;;;;;;10.83;69.88;100204.88;1755981;80;20953;-34
2021/09/28 03:15:14;;;;;;;9.05;4.20;;;;;;;10.84;69.83;100209.95;1755596;81;21140;-34
2021/09/28 03:17:41;;;;;;;9.78;4.47;;;;;;;10.84;69.69;100204.52;1755621;80;21534;-34
2021/09/28 03:20:10;;;;;;;8.88;3.90;;;;;;;10.86;69.71;100207.70;1755644;80;21067;-35
2021/09/28 03:22:37;;;;;;;12.37;4.20;;;;;;;10.83;69.70;100205.67;1755264;81;21011;-34
2021/09/28 03:25:05;;;;;;;7.62;3.90;;;;;;;10.86;69.65;100210.97;1755461;81;20985;-34
2021/09/28 03:27:31;;;;;;;10.35;4.40;;;;;;;10.91;69.59;100214.81;1755413;81;21527;-34
2021/09/28 03:29:59;;;;;;;8.13;4.40;;;;;;;10.93;69.53;100210.41;1756026;80;20925;-34
2021/09/28 03:32:26;;;;;;;12.50;4.58;;;;;;;10.95;69.52;100217.63;1758090;81;21005;-34
2021/09/28 03:34:52;;;;;;;9.35;4.15;;;;;;;10.94;69.47;100218.78;1757804;81;21067;-34
2021/09/28 03:37:19;;;;;;;9.75;4.58;;;;;;;10.90;69.50;100214.02;1757949;81;21522;-34
2021/09/28 03:39:45;;;;;;;4.47;3.87;;;;;;;10.89;69.50;100226.59;1757923;80;21119;-34
2021/09/28 03:42:14;;;;;;;5.20;3.67;;;;;;;10.87;69.58;100220.70;1757961;81;21017;-34
2021/09/28 03:44:40;;;;;;;4.55;3.62;;;;;;;10.88;69.54;100221.73;1738488;81;21071;-34
2021/09/28 03:47:07;;;;;;;5.83;4.08;;;;;;;10.89;69.49;100221.93;1767173;80;21087;-34
2021/09/28 03:49:34;;;;;;;13.58;4.40;;;;;;;10.87;69.53;100218.78;1782766;80;21036;-35
2021/09/28 03:52:01;;;;;;;9.93;4.20;;;;;;;10.89;69.53;100220.57;1782974;80;21734;-34
2021/09/28 03:54:29;;;;;;;7.30;4.05;;;;;;;10.88;69.40;100221.73;1782835;80;20971;-34
2021/09/28 03:56:57;;;;;;;4.70;4.17;;;;;;;10.87;69.34;100220.14;1792060;79;21563;-34
2021/09/28 03:59:23;;;;;;;9.48;4.33;;;;;;;10.87;69.15;100220.14;1786565;80;21579;-34
2021/09/28 04:01:52;;;;;;;8.83;4.50;;;;;;;10.85;69.08;100214.25;1788948;79;20953;-34
2021/09/28 04:04:18;;;;;;;10.53;5.10;;;;;;;10.77;69.27;100219.80;1783094;80;21119;-34
2021/09/28 04:06:45;;;;;;;13.35;4.80;;;;;;;10.69;69.63;100216.08;1788885;80;20999;-34
2021/09/28 04:09:13;;;;;;;10.50;4.30;;;;;;;10.64;69.78;100219.02;1789249;79;21004;-34
2021/09/28 04:11:41;;;;;;;4.97;4.37;;;;;;;10.62;69.92;100218.55;1788834;79;20965;-34
2021/09/28 04:14:09;;;;;;;11.15;4.83;;;;;;;10.60;69.96;100216.73;1789205;79;21764;-34
2021/09/28 04:16:36;;;;;;;12.43;5.40;;;;;;;10.64;70.17;100219.58;1779468;79;21092;-34
2021/09/28 04:19:03;;;;;;;13.38;5.17;;;;;;;10.58;70.23;100219.00;1758180;80;20988;-34
2021/09/28 04:21:32;;;;;;;7.28;5.70;;;;;;;10.56;70.58;100223.97;1757779;81;20977;-34
2021/09/28 04:23:59;;;;;;;6.00;4.35;;;;;;;10.56;70.85;100221.25;1758046;81;21499;-34
2021/09/28 04:26:26;;;;;;;9.23;4.58;;;;;;;10.60;70.99;100220.80;1758000;81;21036;-34
2021/09/28 04:28:54;;;;;;;9.75;5.22;;;;;;;10.68;70.66;100225.91;1757858;81;21127;-34
2021/09/28 04:31:20;;;;;;;10.63;5.45;;;;;;;10.75;70.68;100220.13;1756228;81;21589;-34
2021/09/28 04:33:48;;;;;;;10.95;5.60;;;;;;;10.80;70.62;100222.61;1755492;80;20972;-34
2021/09/28 04:36:15;;;;;;;17.23;5.62;;;;;;;10.84;70.36;100224.87;1755560;81;20970;-34
2021/09/28 04:38:42;;;;;;;11.18;5.58;;;;;;;10.85;70.11;100228.38;1755308;81;21539;-34
2021/09/28 04:41:08;;;;;;;4.72;4.33;;;;;;;10.81;70.11;100228.27;1755564;81;21146;-34
2021/09/28 04:43:35;;;;;;;5.20;4.70;;;;;;;10.83;70.27;100230.66;1755173;81;21004;-34
2021/09/28 04:46:01;;;;;;;5.90;5.30;;;;;;;10.95;70.04;100234.70;1755640;80;21838;-35
2021/09/28 04:48:28;;;;;;;5.97;5.35;;;;;;;11.01;69.91;100233.91;1778670;80;20972;-34
2021/09/28 04:50:55;;;;;;;9.28;6.20;;;;;;;11.02;69.74;100238.21;1780295;80;21055;-34
2021/09/28 04:53:24;;;;;;;9.83;6.55;;;;;;;11.06;69.85;100244.53;1780529;80;20988;-34
2021/09/28 04:55:57;;;;;;;7.22;6.42;;;;;;;11.09;69.93;100245.99;1781960;79;21040;-34
2021/09/28 04:58:26;;;;;;;6.53;5.37;;;;;;;11.14;69.73;100251.75;1786772;79;21534;-34
2021/09/28 05:00:52;;;;;;;7.10;6.25;;;;;;;11.18;69.52;100248.61;1786736;79;21017;-34
2021/09/28 05:03:19;;;;;;;8.08;6.42;;;;;;;11.21;69.61;100251.42;1786457;80;21001;-34
2021/09/28 05:05:45;;;;;;;9.83;7.10;;;;;;;11.25;69.69;100253.67;1786488;80;21124;-34
2021/09/28 05:08:14;;;;;;;7.97;7.00;;;;;;;11.32;69.50;100253.11;1785035;80;20910;-35
2021/09/28 05:10:40;;;;;;;10.48;7.15;;;;;;;11.36;69.37;100254.56;1786346;80;20957;-34
2021/09/28 05:13:07;;;;;;;8.15;6.58;;;;;;;11.36;69.30;100248.56;1786525;79;21040;-34
2021/09/28 05:15:33;;;;;;;8.03;6.95;;;;;;;11.38;69.20;100254.99;1786577;79;21025;-34
2021/09/28 05:18:00;;;;;;;8.45;7.55;;;;;;;11.46;69.06;100250.02;1786773;79;21993;-35
2021/09/28 05:20:27;;;;;;;9.75;7.87;;;;;;;11.51;69.17;100256.00;1786661;80;20949;-35
2021/09/28 05:22:53;;;;;;;12.07;8.08;;;;;;;11.54;69.15;100255.30;1786759;80;20976;-34
2021/09/28 05:25:20;;;;;;;10.48;7.92;;;;;;;11.59;69.12;100257.78;1786900;79;20953;-34
2021/09/28 05:27:46;;;;;;;10.10;7.92;;;;;;;11.61;69.04;100255.52;1786764;80;21488;-35
2021/09/28 05:30:13;;;;;;;11.38;8.05;;;;;;;11.62;69.03;100259.00;1776093;80;21144;-34
2021/09/28 05:32:40;;;;;;;8.05;7.17;;;;;;;11.69;68.79;100261.94;1755867;80;21542;-34
2021/09/28 05:35:07;;;;;;;10.93;8.33;;;;;;;11.72;68.62;100266.14;1755716;81;20890;-34
2021/09/28 05:37:34;;;;;;;12.75;9.48;;;;;;;11.74;68.89;100263.09;1755587;80;21044;-34
2021/09/28 05:40:00;;;;;;;11.25;8.88;;;;;;;11.78;68.71;100264.54;1755932;81;21575;-35
2021/09/28 05:42:27;;;;;;;10.82;8.98;;;;;;;11.81;68.74;100265.22;1755646;80;21157;-34
2021/09/28 05:44:53;;;;;;;10.78;8.53;;;;;;;11.84;68.63;100272.11;1755817;81;21016;-35
2021/09/28 05:47:20;;;;;;;8.90;7.75;;;;;;;11.86;68.61;100270.41;1766955;80;21515;-35
2021/09/28 05:49:47;;;;;;;10.72;8.70;;;;;;;11.88;68.56;100273.00;1772557;80;21044;-34
2021/09/28 05:52:14;;;;;;;11.20;8.93;;;;;;;11.93;68.59;100274.11;1755813;80;21008;-34
2021/09/28 05:54:47;;;;;;;11.08;9.10;;;;;;;11.95;68.58;100277.84;1712418;81;21161;-34
2021/09/28 05:57:16;;;;;;;11.00;9.68;;;;;;;11.97;68.52;100287.22;1755416;80;21484;-34
2021/09/28 05:59:44;;;;;;;12.53;9.03;;;;;;;11.97;68.27;100285.06;1755720;81;21045;-35
2021/09/28 06:02:11;;;;;;;11.57;8.73;;;;;;;11.98;68.23;100282.58;1755443;80;21502;-35
2021/09/28 06:04:37;;;;;;;10.15;9.05;;;;;;;11.99;68.20;100277.37;1755548;81;21570;-35
2021/09/28 06:07:04;;;;;;;11.03;8.68;;;;;;;12.06;68.24;100280.27;1755551;81;21132;-35
2021/09/28 06:09:38;;;;;;;11.93;9.25;;;;;;;12.13;68.27;100289.43;1755338;80;21013;-34
2021/09/28 06:12:10;;;;;;;14.13;9.78;;;;;;;12.17;68.00;100288.16;1755634;81;21027;-34
2021/09/28 06:14:37;;;;;;;11.03;8.63;;;;;;;12.17;67.58;100293.59;1755715;81;20980;-34
2021/09/28 06:17:05;;;;;;;10.90;8.95;;;;;;;12.14;67.58;100297.81;1782173;80;21016;-34
2021/09/28 06:19:35;;;;;;;13.15;8.33;;;;;;;12.14;67.62;100298.37;1783960;80;21020;-35
2021/09/28 06:22:04;;;;;;;9.85;7.20;;;;;;;12.15;66.97;100302.09;1755512;80;21016;-34
2021/09/28 06:24:32;;;;;;;10.08;7.05;;;;;;;12.13;66.67;100298.15;1755838;80;21484;-34
2021/09/28 06:27:04;;;;;;;8.35;7.53;;;;;;;12.06;66.51;100296.58;1755543;81;20929;-34
2021/09/28 06:29:31;;;;;;;12.80;8.65;;;;;;;12.02;66.85;100299.20;1755697;80;21037;-34
2021/09/28 06:31:58;;;;;;;12.60;9.70;;;;;;;12.00;67.11;100299.34;1757132;81;21136;-34
2021/09/28 06:34:24;;;;;;;10.90;9.65;;;;;;;11.96;67.39;100301.94;1757923;81;20957;-34
2021/09/28 06:36:51;;;;;;;13.58;9.10;;;;;;;11.95;67.53;100307.17;1757744;81;21031;-35
2021/09/28 06:39:17;;;;;;;11.25;8.38;;;;;;;11.97;67.26;100302.73;1758040;81;21011;-34
2021/09/28 06:41:45;;;;;;;12.90;8.50;;;;;;;12.01;66.97;100300.90;1757763;81;21534;-35
2021/09/28 06:44:11;;;;;;;15.95;10.50;;;;;;;12.02;67.25;100310.64;1758071;81;21178;-35
2021/09/28 06:46:38;;;;;;;13.05;10.03;;;;;;;12.09;67.20;100316.29;1762137;80;21541;-34
2021/09/28 06:49:05;;;;;;;10.58;8.40;;;;;;;12.16;67.10;100317.83;1763390;80;20953;-34
2021/09/28 06:51:32;;;;;;;11.38;9.50;;;;;;;12.21;66.97;100318.94;1757838;81;21036;-35
2021/09/28 06:53:58;;;;;;;13.00;8.75;;;;;;;12.27;66.56;100314.84;1757969;81;21534;-34
2021/09/28 06:56:25;;;;;;;11.40;8.43;;;;;;;12.31;66.43;100323.88;1758048;81;21131;-34
2021/09/28 06:58:52;;;;;;;15.15;9.25;;;;;;;12.38;65.95;100322.73;1757614;81;21068;-34
2021/09/28 07:01:19;;;;;;;15.55;10.82;;;;;;;12.41;66.02;100326.10;1757964;81;21515;-35
2021/09/28 07:03:47;;;;;;;14.23;10.68;;;;;;;12.47;65.65;100327.44;1757626;81;20982;-35
2021/09/28 07:06:13;;;;;;;14.10;11.45;;;;;;;12.52;65.52;100325.03;1758036;81;21036;-34
2021/09/28 07:08:41;;;;;;;14.73;11.57;;;;;;;12.54;65.37;100322.17;1757905;81;21939;-35
2021/09/28 07:11:08;;;;;;;14.83;9.70;;;;;;;12.57;65.29;100325.57;1757765;81;21522;-34
2021/09/28 07:13:36;;;;;;;13.65;9.00;;;;;;;12.60;64.99;100326.22;1757855;81;21004;-35
2021/09/28 07:16:06;;;;;;;13.15;10.35;;;;;;;12.62;65.13;100329.40;1757834;81;21020;-35
2021/09/28 07:18:33;;;;;;;15.00;10.18;;;;;;;12.72;65.00;100332.73;1764309;80;21460;-34
2021/09/28 07:21:01;;;;;;;12.98;9.80;;;;;;;12.80;64.87;100331.20;1758217;80;21115;-35
2021/09/28 07:23:28;;;;;;;14.95;9.80;;;;;;;12.90;64.90;100333.97;1757793;81;20917;-35
2021/09/28 07:25:54;;;;;;;11.95;9.35;;;;;;;13.06;65.16;100334.20;1771132;78;21530;-35
2021/09/28 07:28:21;;;;;;;14.80;10.25;;;;;;;13.22;64.36;100339.64;1782992;80;20944;-37
2021/09/28 07:30:50;;;;;;;13.05;9.03;;;;;;;13.34;63.82;100338.20;1782721;79;21102;-37
2021/09/28 07:33:17;;;;;;;9.70;8.40;;;;;;;13.43;63.88;100342.88;1782928;80;21496;-37
2021/09/28 07:35:46;;;;;;;11.15;8.58;;;;;;;13.48;63.29;100350.78;1782948;80;21011;-37
2021/09/28 07:38:14;;;;;;;12.93;8.65;;;;;;;13.51;62.78;100351.98;1782935;80;20948;-34
2021/09/28 07:40:46;;;;;;;10.10;8.78;;;;;;;13.46;62.83;100354.41;1763549;79;20937;-34
2021/09/28 07:43:12;;;;;;;14.58;9.38;;;;;;;13.45;62.84;100351.50;1758268;80;21510;-34
2021/09/28 07:45:41;;;;;;;14.45;10.32;;;;;;;13.42;62.94;100355.48;1757828;81;21153;-34
2021/09/28 07:48:09;;;;;;;15.15;12.93;;;;;;;13.38;62.80;100354.05;1777898;80;20945;-34
2021/09/28 07:50:35;;;;;;;18.23;13.03;;;;;;;13.40;62.72;100351.77;1782766;80;21074;-34
2021/09/28 07:53:06;;;;;;;18.73;12.18;;;;;;;13.46;62.84;100351.69;1783008;80;21601;-34
2021/09/28 07:55:36;;;;;;;13.30;10.70;;;;;;;13.53;62.95;100348.92;1783099;80;21511;-35
2021/09/28 07:58:04;;;;;;;13.15;10.18;;;;;;;13.64;62.36;100352.68;1782944;80;21108;-34
2021/09/28 08:00:32;;;;;;;11.50;9.83;;;;;;;13.73;62.39;100349.18;1782760;80;21079;-34
2021/09/28 08:02:59;;;;;;;10.82;8.88;;;;;;;13.85;62.12;100349.04;1783305;80;21043;-34
2021/09/28 08:05:26;;;;;;;11.05;8.18;;;;;;;13.92;61.98;100344.55;1782897;80;20984;-34
2021/09/28 08:07:53;;;;;;;11.48;8.10;;;;;;;13.96;61.78;100349.27;1759744;80;21115;-34
2021/09/28 08:10:20;;;;;;;14.63;8.38;;;;;;;13.99;61.84;100345.84;1751994;81;22063;-34
2021/09/28 08:12:49;;;;;;;11.85;8.70;;;;;;;14.01;61.98;100348.98;1751702;81;20976;-34
2021/09/28 08:15:17;;;;;;;12.23;9.50;;;;;;;14.03;61.93;100351.59;1751916;81;20986;-34
2021/09/28 08:17:43;;;;;;;13.03;10.82;;;;;;;14.04;61.40;100359.20;1751771;81;21969;-34
2021/09/28 08:20:11;;;;;;;13.88;8.78;;;;;;;14.03;61.19;100354.31;1754338;81;21028;-34
2021/09/28 08:22:39;;;;;;;12.43;8.08;;;;;;;14.04;61.06;100361.33;1757781;81;21915;-34
2021/09/28 08:25:12;;;;;;;14.50;9.10;;;;;;;14.07;61.14;100358.47;1757889;81;21570;-34
2021/09/28 08:30:23;;;;;;;14.20;11.85;;;;;;;14.11;61.14;100355.23;1757117;80;21099;-34
2021/09/28 08:32:50;;;;;;;20.62;14.93;;;;;;;14.08;60.17;100354.03;1757975;80;21593;-34
2021/09/28 08:35:16;;;;;;;16.77;13.40;;;;;;;14.00;60.18;100355.58;1758450;81;21088;-34
2021/09/28 08:37:44;;;;;;;15.80;12.07;;;;;;;13.99;60.54;100358.87;1757835;81;21070;-34
2021/09/28 08:40:13;;;;;;;16.67;11.88;;;;;;;14.07;60.89;100359.84;1758187;81;20945;-34
2021/09/28 08:42:41;;;;;;;19.15;15.70;;;;;;;14.18;60.84;100356.76;1757707;81;21099;-34
2021/09/28 08:45:09;;;;;;;21.70;15.15;;;;;;;14.29;60.49;100358.53;1758255;81;21028;-34
2021/09/28 08:47:41;;;;;;;18.30;14.98;;;;;;;14.39;60.02;100357.77;1757886;81;21106;-34
2021/09/28 08:50:13;;;;;;;16.12;12.78;;;;;;;14.45;59.79;100356.33;1758152;81;20969;-34
2021/09/28 08:52:41;;;;;;;15.70;12.95;;;;;;;14.53;59.23;100358.03;1757950;81;21483;-34
2021/09/28 08:55:10;;;;;;;19.17;14.05;;;;;;;14.58;58.69;100357.16;1758413;81;21032;-34
2021/09/28 08:57:38;;;;;;;17.30;14.63;;;;;;;14.60;58.53;100360.34;1757987;81;21009;-34
2021/09/28 09:00:23;;;;;;;15.10;13.20;;;;;;;14.65;58.49;100354.58;1758186;80;21965;-34
2021/09/28 09:02:50;;;;;;;19.35;12.35;;;;;;;14.72;58.19;100356.63;1727573;83;20992;-36
2021/09/28 09:05:17;;;;;;;19.35;13.08;;;;;;;14.74;57.77;100354.34;1749570;80;20988;-36
2021/09/28 09:07:58;;;;;;;17.57;11.83;;;;;;;14.77;58.06;100351.67;1751896;81;21335;-36
2021/09/28 09:10:34;;;;;;;15.70;12.03;;;;;;;14.86;58.08;100359.64;1752447;81;21115;-36
2021/09/28 09:13:00;;;;;;;14.90;11.25;;;;;;;14.96;58.05;100364.47;1752125;81;21102;-36
2021/09/28 09:15:31;;;;;;;12.07;9.20;;;;;;;15.07;57.70;100357.25;1752040;81;20992;-34
2021/09/28 09:18:06;;;;;;;15.53;8.23;;;;;;;15.17;57.45;100353.12;1752384;81;20983;-34
2021/09/28 09:20:41;;;;;;;13.45;8.78;;;;;;;15.31;56.38;100356.65;1752313;81;20984;-34
2021/09/28 09:23:27;;;;;;;17.77;8.45;;;;;;;15.38;55.83;100353.47;1752023;81;21052;-34
2021/09/28 09:26:08;;;;;;;16.65;8.60;;;;;;;15.41;54.76;100364.23;1758159;80;21162;-34
2021/09/28 09:28:52;;;;;;;14.40;7.85;;;;;;;15.41;55.16;100358.76;1727693;82;21024;-35
2021/09/28 09:31:31;;;;;;;16.40;7.97;;;;;;;15.46;54.89;100363.91;1726913;83;21005;-35
2021/09/28 09:34:19;;;;;;;10.48;7.08;;;;;;;15.57;55.67;100367.63;1727891;83;21031;-34
2021/09/28 09:37:03;;;;;;;17.30;7.53;;;;;;;15.75;54.87;100366.52;1728079;83;21095;-34
2021/09/28 09:39:50;;;;;;;16.10;7.30;;;;;;;15.88;54.03;100378.80;1727788;83;21139;-34
2021/09/28 09:42:17;;;;;;;14.78;7.83;;;;;;;15.95;53.80;100366.02;1727312;82;20985;-35
2021/09/28 09:44:45;;;;;;;14.00;9.35;;;;;;;16.06;54.30;100371.06;1727693;83;21090;-34
2021/09/28 09:47:29;;;;;;;13.78;9.20;;;;;;;16.19;53.56;100375.70;1727780;82;21022;-35
2021/09/28 09:50:21;;;;;;;15.85;8.10;;;;;;;16.32;53.11;100370.76;1727487;82;21043;-34
2021/09/28 09:53:05;;;;;;;16.90;7.30;;;;;;;16.49;52.78;100369.61;1728060;82;21509;-34
2021/09/28 09:55:33;;;;;;;13.53;7.10;;;;;;;16.69;52.66;100376.30;1751363;80;21035;-34
2021/09/28 09:58:01;;;;;;;14.20;6.62;;;;;;;16.76;51.66;100371.67;1752348;81;21048;-35
2021/09/28 10:00:28;;;;;;;12.68;5.97;;;;;;;16.79;51.78;100372.30;1754431;81;20964;-34
2021/09/28 10:02:56;;;;;;;14.47;5.80;;;;;;;16.73;49.94;100375.17;1727662;82;21040;-34
2021/09/28 10:05:23;;;;;;;14.33;5.97;;;;;;;16.69;50.07;100369.45;1727812;83;21128;-35
2021/09/28 10:07:49;;;;;;;14.23;5.87;;;;;;;16.69;50.61;100372.19;1728046;83;22058;-36
2021/09/28 10:10:18;;;;;;;12.53;6.40;;;;;;;16.70;50.48;100362.22;1728001;82;21574;-36
2021/09/28 10:12:44;;;;;;;16.65;6.40;;;;;;;16.73;50.27;100368.33;1727972;82;21020;-36
2021/09/28 10:15:14;;;;;;;23.67;6.12;;;;;;;16.72;50.48;100372.80;1727816;82;21051;-36
2021/09/28 10:17:46;;;;;;;19.37;6.30;;;;;;;16.67;50.53;100376.67;1736719;81;21098;-36
2021/09/28 10:20:29;;;;;;;18.48;6.45;;;;;;;16.62;50.31;100371.53;1752080;81;21545;-36
2021/09/28 10:23:24;;;;;;;19.60;5.42;;;;;;;16.56;50.39;100370.25;1749069;80;21074;-36
2021/09/28 10:25:48;;;;;;;16.23;5.87;;;;;;;16.53;50.71;100370.44;1754213;80;21067;-36
2021/09/28 10:28:21;;;;;;;20.45;6.10;;;;;;;16.64;50.41;100373.32;1754594;81;21059;-36
2021/09/28 10:30:48;;;;;;;21.65;5.58;;;;;;;16.77;50.39;100366.41;1757730;81;21107;-36
2021/09/28 10:33:27;;;;;;;32.37;6.53;;;;;;;16.91;50.10;100363.80;1757337;80;21582;-36
2021/09/28 10:36:13;;;;;;;21.73;5.90;;;;;;;16.95;48.17;100371.46;1756867;80;21063;-36
2021/09/28 10:38:53;;;;;;;20.20;5.80;;;;;;;16.86;48.52;100366.88;1751174;81;21282;-36
2021/09/28 10:41:35;;;;;;;21.15;6.10;;;;;;;16.75;49.17;100366.59;1751702;81;20988;-36
2021/09/28 10:44:36;;;;;;;21.77;5.95;;;;;;;16.69;49.46;100370.83;1750642;81;21117;-36
2021/09/28 10:46:59;;;;;;;19.82;5.70;;;;;;;16.62;49.99;100367.42;1751284;81;20952;-36
2021/09/28 10:49:31;;;;;;;25.20;5.62;;;;;;;16.56;50.69;100372.98;1752294;81;21064;-36
2021/09/28 10:52:26;;;;;;;20.97;5.15;;;;;;;16.63;50.30;100360.78;1751972;81;21095;-36
2021/09/28 10:55:14;;;;;;;33.90;5.60;;;;;;;16.77;50.47;100360.92;1752185;81;21228;-36
2021/09/28 10:58:01;;;;;;;17.75;5.33;;;;;;;16.89;48.57;100362.01;1734521;80;20965;-36
2021/09/28 11:00:32;;;;;;;21.57;5.75;;;;;;;16.90;48.61;100364.95;1757959;81;20953;-36
2021/09/28 11:02:59;;;;;;;27.82;6.47;;;;;;;16.82;48.77;100360.59;1752850;80;20988;-36
2021/09/28 11:05:42;;;;;;;26.80;5.50;;;;;;;16.73;48.80;100357.38;1758099;81;21016;-36
2021/09/28 11:08:12;;;;;;;22.32;5.58;;;;;;;16.72;49.40;100359.90;1755967;80;21025;-36
2021/09/28 11:10:38;;;;;;;;;;;;;;;16.84;49.39;100362.37;1754778;81;21099;-36
2021/09/28 11:13:08;;;;;;;25.17;5.90;;;;;;;17.05;46.03;100358.23;1752032;81;20647;-36
2021/09/28 11:15:35;;;;;;;29.07;5.47;;;;;;;17.09;46.39;100368.05;1751964;81;21491;-36
2021/09/28 11:18:13;;;;;;;20.55;4.97;;;;;;;17.19;46.36;100365.20;1755137;81;20964;-36
2021/09/28 11:20:41;;;;;;;25.37;5.37;;;;;;;17.22;47.32;100367.20;1758028;81;21076;-36
2021/09/28 11:23:11;;;;;;;17.27;4.83;;;;;;;17.18;47.06;100367.18;1758122;81;21103;-36
2021/09/28 11:25:40;;;;;;;23.67;5.58;;;;;;;17.13;47.94;100367.53;1754731;80;21012;-36
2021/09/28 11:28:13;;;;;;;26.90;5.72;;;;;;;17.11;47.54;100367.69;1752097;81;21031;-36
2021/09/28 11:30:48;;;;;;;30.57;6.15;;;;;;;17.06;47.13;100372.94;1752103;81;21055;-36
2021/09/28 11:33:14;;;;;;;26.12;5.87;;;;;;;17.00;47.44;100373.06;1742220;81;21076;-36